Algosea — CFN4229 — position and weather

sailwx.info

Track history (hours):
 
Tides and Currents Weather Stations Pressure Air Temp Water Temp Dewpoint Dewpoint Depression Visibility Wind Speed Wind Dir Waves Ship Positions

Algosea

Last reported at 2014-Aug-22 19:33 UTC. Time now 2014-Aug-29 01:38 UTC.
Position N 43°07' W 079°12'.

Length 144 m; draft 6.6 m.

Type: Ship. MMSI: 316006868.

Date/timePositionNaut miles runAvg speedWind from/ knotsBaromVisibWave heightAir tempDewpointWater temp
2014-Aug-22 19:33N 43°07' W 079°12'1 1.4
2014-Aug-22 18:33N 43°08' W 079°12'0 0.1
2014-Aug-22 17:30N 43°08' W 079°12'0 0.3
2014-Aug-22 16:07N 43°08' W 079°12'12 2.9
2014-Aug-22 12:04N 43°20' W 079°09'712.3
2014-Aug-22 11:31N 43°24' W 079°02'1313.3
2014-Aug-22 10:33N 43°28' W 078°45'1513.3
2014-Aug-22 09:28N 43°32' W 078°26'7912.9
2014-Aug-22 03:23N 43°55' W 076°42'1112.9
2014-Aug-22 02:33N 44°01' W 076°29'1212.1
2014-Aug-22 01:33N 44°10' W 076°19'1111.2
2014-Aug-22 00:33N 44°15' W 076°05'9 8.6
2014-Aug-21 23:33N 44°20' W 075°56'2211.2
2014-Aug-21 21:34N 44°38' W 075°36'1111.4
2014-Aug-21 20:33N 44°46' W 075°25'7 7.1
2014-Aug-21 19:33N 44°51' W 075°18'1010.4
2014-Aug-21 18:33N 44°56' W 075°05'1010.3
2014-Aug-21 17:33N 44°59' W 074°51'3 3.2
2014-Aug-21 16:33N 44°59' W 074°47'5 5.0
2014-Aug-21 15:33N 45°01' W 074°40'8 8.1
2014-Aug-21 14:33N 45°05' W 074°30'9 9.3
2014-Aug-21 13:33N 45°11' W 074°20'9 9.3
2014-Aug-21 12:33N 45°14' W 074°07'8 7.9
2014-Aug-21 11:33N 45°16' W 073°57'3 2.8
2014-Aug-21 10:33N 45°19' W 073°55'5 5.2
2014-Aug-21 09:33N 45°22' W 073°49'8 8.2
2014-Aug-21 08:33N 45°24' W 073°38'3 3.2
2014-Aug-21 07:33N 45°24' W 073°34'5 4.9
2014-Aug-21 06:33N 45°29' W 073°31'1 1.3
2014-Aug-21 05:33N 45°30' W 073°31'7 6.5
2014-Aug-21 04:33N 45°37' W 073°30'0 0.0
2014-Aug-21 03:33N 45°37' W 073°30'0 0.0
2014-Aug-21 02:33N 45°37' W 073°30'0 0.0
2014-Aug-21 01:33N 45°37' W 073°30'0 0.0
2014-Aug-21 00:33N 45°37' W 073°30'0 0.0
2014-Aug-20 23:33N 45°37' W 073°30'0 0.0
2014-Aug-20 22:33N 45°37' W 073°30'0 0.0
2014-Aug-20 21:33N 45°37' W 073°30'0 0.0
2014-Aug-20 20:33N 45°37' W 073°30'0 0.0
2014-Aug-20 19:33N 45°37' W 073°30'0 0.0
2014-Aug-20 18:33N 45°37' W 073°30'0 0.0
2014-Aug-20 17:33N 45°37' W 073°30'0 0.0
2014-Aug-20 16:33N 45°37' W 073°30'0 0.0
2014-Aug-20 15:33N 45°37' W 073°30'0 0.0
2014-Aug-20 14:33N 45°37' W 073°30'0 0.0
2014-Aug-20 13:34N 45°37' W 073°30'0 0.0
2014-Aug-20 12:34N 45°37' W 073°30'0 0.0
2014-Aug-20 11:33N 45°37' W 073°30'0 0.0
2014-Aug-20 10:33N 45°37' W 073°30'0 0.0
2014-Aug-20 09:33N 45°37' W 073°30'0 0.0
2014-Aug-20 08:33N 45°37' W 073°30'0 0.0
2014-Aug-20 07:34N 45°37' W 073°30'0 0.0
2014-Aug-20 06:33N 45°37' W 073°30'0 0.0
2014-Aug-20 05:33N 45°37' W 073°30'1 1.5
2014-Aug-20 04:34N 45°38' W 073°29'0 0.0
2014-Aug-20 03:33N 45°38' W 073°29'0 0.0
2014-Aug-20 02:31N 45°38' W 073°29'0 0.0
2014-Aug-20 01:31N 45°38' W 073°29'0 0.0
2014-Aug-20 00:31N 45°38' W 073°29'0 0.0
2014-Aug-19 23:31N 45°38' W 073°29'0 0.0
2014-Aug-19 22:31N 45°38' W 073°29'0 0.0
2014-Aug-19 21:31N 45°38' W 073°29'0 0.0
2014-Aug-19 20:31N 45°38' W 073°29'0 0.0
2014-Aug-19 19:31N 45°38' W 073°29'0 0.0
2014-Aug-19 18:31N 45°38' W 073°29'0 0.0
2014-Aug-19 17:31N 45°38' W 073°29'0 0.0
2014-Aug-19 16:31N 45°38' W 073°29'0 0.0
2014-Aug-19 15:31N 45°38' W 073°29'0 0.0
2014-Aug-19 14:31N 45°38' W 073°29'0 0.0
2014-Aug-19 13:31N 45°38' W 073°29'0 0.0
2014-Aug-19 12:31N 45°38' W 073°29'0 0.0
2014-Aug-19 11:31N 45°38' W 073°29'0 0.0
2014-Aug-19 10:31N 45°38' W 073°29'0 0.0
2014-Aug-19 09:31N 45°38' W 073°29'0 0.0
2014-Aug-19 08:31N 45°38' W 073°29'0 0.0
2014-Aug-19 07:28N 45°38' W 073°29'0 0.0
2014-Aug-19 06:31N 45°38' W 073°29'0 0.0
2014-Aug-19 05:31N 45°38' W 073°29'0 0.0
2014-Aug-19 04:31N 45°38' W 073°29'0 0.0
2014-Aug-19 03:31N 45°38' W 073°29'0 0.0
2014-Aug-19 02:31N 45°38' W 073°29'0 0.0
2014-Aug-19 01:31N 45°38' W 073°29'0 0.0
2014-Aug-19 00:31N 45°38' W 073°29'0 0.0
2014-Aug-18 23:31N 45°38' W 073°29'0 0.0
2014-Aug-18 22:31N 45°38' W 073°29'0 0.0
2014-Aug-18 21:31N 45°38' W 073°29'0 0.0
2014-Aug-18 20:31N 45°38' W 073°29'0 0.0
2014-Aug-18 19:31N 45°38' W 073°29'0 0.0
2014-Aug-18 18:31N 45°38' W 073°29'0 0.0
2014-Aug-18 17:28N 45°38' W 073°29'0 0.0
2014-Aug-18 16:31N 45°38' W 073°29'0 0.0
2014-Aug-18 15:34N 45°38' W 073°29'7 7.4
2014-Aug-18 14:34N 45°31' W 073°31'2 1.8
2014-Aug-18 13:34N 45°29' W 073°31'5 4.9
2014-Aug-18 12:34N 45°24' W 073°34'1 1.4
2014-Aug-18 11:33N 45°24' W 073°36'7 6.9
2014-Aug-18 10:33N 45°24' W 073°45'9 8.6
2014-Aug-18 09:33N 45°19' W 073°55'1 0.8
2014-Aug-18 08:33N 45°18' W 073°56'1 0.9
2014-Aug-18 07:33N 45°17' W 073°56'7 7.0
2014-Aug-18 06:33N 45°13' W 074°04'1010.1
2014-Aug-18 05:33N 45°12' W 074°18'1111.3
2014-Aug-18 04:33N 45°04' W 074°31'10 9.9
2014-Aug-18 03:33N 44°60' W 074°43'3 2.8
2014-Aug-18 02:33N 44°59' W 074°47'2 2.1
2014-Aug-18 01:33N 44°59' W 074°50'1 1.4
2014-Aug-18 00:33N 44°59' W 074°52'56 9.3
2014-Aug-17 18:33N 44°23' W 075°52'1010.5
2014-Aug-17 17:33N 44°16' W 076°03'1111.5
2014-Aug-17 16:34N 44°12' W 076°18'1211.9
2014-Aug-17 15:34N 44°02' W 076°26'10711.9
2014-Aug-17 06:34N 43°24' W 078°45'1512.8
2014-Aug-17 05:26N 43°20' W 079°04'  
Track history (hours):
 
Tides and Currents Weather Stations Pressure Air Temp Water Temp Dewpoint Dewpoint Depression Visibility Wind Speed Wind Dir Waves Ship Positions

Algosea

Last reported at 2014-Aug-22 19:33 UTC. Time now 2014-Aug-29 01:38 UTC.
Position N 43°07' W 079°12'.

Length 144 m; draft 6.6 m.

Type: Ship. MMSI: 316006868.

Date/timePositionNaut miles runAvg speedWind from/ knotsBaromVisibWave heightAir tempDewpointWater temp
2014-Aug-22 19:33N 43°07' W 079°12'1 1.4
2014-Aug-22 18:33N 43°08' W 079°12'0 0.1
2014-Aug-22 17:30N 43°08' W 079°12'0 0.3
2014-Aug-22 16:07N 43°08' W 079°12'12 2.9
2014-Aug-22 12:04N 43°20' W 079°09'712.3
2014-Aug-22 11:31N 43°24' W 079°02'1313.3
2014-Aug-22 10:33N 43°28' W 078°45'1513.3
2014-Aug-22 09:28N 43°32' W 078°26'7912.9
2014-Aug-22 03:23N 43°55' W 076°42'1112.9
2014-Aug-22 02:33N 44°01' W 076°29'1212.1
2014-Aug-22 01:33N 44°10' W 076°19'1111.2
2014-Aug-22 00:33N 44°15' W 076°05'9 8.6
2014-Aug-21 23:33N 44°20' W 075°56'2211.2
2014-Aug-21 21:34N 44°38' W 075°36'1111.4
2014-Aug-21 20:33N 44°46' W 075°25'7 7.1
2014-Aug-21 19:33N 44°51' W 075°18'1010.4
2014-Aug-21 18:33N 44°56' W 075°05'1010.3
2014-Aug-21 17:33N 44°59' W 074°51'3 3.2
2014-Aug-21 16:33N 44°59' W 074°47'5 5.0
2014-Aug-21 15:33N 45°01' W 074°40'8 8.1
2014-Aug-21 14:33N 45°05' W 074°30'9 9.3
2014-Aug-21 13:33N 45°11' W 074°20'9 9.3
2014-Aug-21 12:33N 45°14' W 074°07'8 7.9
2014-Aug-21 11:33N 45°16' W 073°57'3 2.8
2014-Aug-21 10:33N 45°19' W 073°55'5 5.2
2014-Aug-21 09:33N 45°22' W 073°49'8 8.2
2014-Aug-21 08:33N 45°24' W 073°38'3 3.2
2014-Aug-21 07:33N 45°24' W 073°34'5 4.9
2014-Aug-21 06:33N 45°29' W 073°31'1 1.3
2014-Aug-21 05:33N 45°30' W 073°31'7 6.5
2014-Aug-21 04:33N 45°37' W 073°30'0 0.0
2014-Aug-21 03:33N 45°37' W 073°30'0 0.0
2014-Aug-21 02:33N 45°37' W 073°30'0 0.0
2014-Aug-21 01:33N 45°37' W 073°30'0 0.0
2014-Aug-21 00:33N 45°37' W 073°30'0 0.0
2014-Aug-20 23:33N 45°37' W 073°30'0 0.0
2014-Aug-20 22:33N 45°37' W 073°30'0 0.0
2014-Aug-20 21:33N 45°37' W 073°30'0 0.0
2014-Aug-20 20:33N 45°37' W 073°30'0 0.0
2014-Aug-20 19:33N 45°37' W 073°30'0 0.0
2014-Aug-20 18:33N 45°37' W 073°30'0 0.0
2014-Aug-20 17:33N 45°37' W 073°30'0 0.0
2014-Aug-20 16:33N 45°37' W 073°30'0 0.0
2014-Aug-20 15:33N 45°37' W 073°30'0 0.0
2014-Aug-20 14:33N 45°37' W 073°30'0 0.0
2014-Aug-20 13:34N 45°37' W 073°30'0 0.0
2014-Aug-20 12:34N 45°37' W 073°30'0 0.0
2014-Aug-20 11:33N 45°37' W 073°30'0 0.0
2014-Aug-20 10:33N 45°37' W 073°30'0 0.0
2014-Aug-20 09:33N 45°37' W 073°30'0 0.0
2014-Aug-20 08:33N 45°37' W 073°30'0 0.0
2014-Aug-20 07:34N 45°37' W 073°30'0 0.0
2014-Aug-20 06:33N 45°37' W 073°30'0 0.0
2014-Aug-20 05:33N 45°37' W 073°30'1 1.5
2014-Aug-20 04:34N 45°38' W 073°29'0 0.0
2014-Aug-20 03:33N 45°38' W 073°29'0 0.0
2014-Aug-20 02:31N 45°38' W 073°29'0 0.0
2014-Aug-20 01:31N 45°38' W 073°29'0 0.0
2014-Aug-20 00:31N 45°38' W 073°29'0 0.0
2014-Aug-19 23:31N 45°38' W 073°29'0 0.0
2014-Aug-19 22:31N 45°38' W 073°29'0 0.0
2014-Aug-19 21:31N 45°38' W 073°29'0 0.0
2014-Aug-19 20:31N 45°38' W 073°29'0 0.0
2014-Aug-19 19:31N 45°38' W 073°29'0 0.0
2014-Aug-19 18:31N 45°38' W 073°29'0 0.0
2014-Aug-19 17:31N 45°38' W 073°29'0 0.0
2014-Aug-19 16:31N 45°38' W 073°29'0 0.0
2014-Aug-19 15:31N 45°38' W 073°29'0 0.0
2014-Aug-19 14:31N 45°38' W 073°29'0 0.0
2014-Aug-19 13:31N 45°38' W 073°29'0 0.0
2014-Aug-19 12:31N 45°38' W 073°29'0 0.0
2014-Aug-19 11:31N 45°38' W 073°29'0 0.0
2014-Aug-19 10:31N 45°38' W 073°29'0 0.0
2014-Aug-19 09:31N 45°38' W 073°29'0 0.0
2014-Aug-19 08:31N 45°38' W 073°29'0 0.0
2014-Aug-19 07:28N 45°38' W 073°29'0 0.0
2014-Aug-19 06:31N 45°38' W 073°29'0 0.0
2014-Aug-19 05:31N 45°38' W 073°29'0 0.0
2014-Aug-19 04:31N 45°38' W 073°29'0 0.0
2014-Aug-19 03:31N 45°38' W 073°29'0 0.0
2014-Aug-19 02:31N 45°38' W 073°29'0 0.0
2014-Aug-19 01:31N 45°38' W 073°29'0 0.0
2014-Aug-19 00:31N 45°38' W 073°29'0 0.0
2014-Aug-18 23:31N 45°38' W 073°29'0 0.0
2014-Aug-18 22:31N 45°38' W 073°29'0 0.0
2014-Aug-18 21:31N 45°38' W 073°29'0 0.0
2014-Aug-18 20:31N 45°38' W 073°29'0 0.0
2014-Aug-18 19:31N 45°38' W 073°29'0 0.0
2014-Aug-18 18:31N 45°38' W 073°29'0 0.0
2014-Aug-18 17:28N 45°38' W 073°29'0 0.0
2014-Aug-18 16:31N 45°38' W 073°29'0 0.0
2014-Aug-18 15:34N 45°38' W 073°29'7 7.4
2014-Aug-18 14:34N 45°31' W 073°31'2 1.8
2014-Aug-18 13:34N 45°29' W 073°31'5 4.9
2014-Aug-18 12:34N 45°24' W 073°34'1 1.4
2014-Aug-18 11:33N 45°24' W 073°36'7 6.9
2014-Aug-18 10:33N 45°24' W 073°45'9 8.6
2014-Aug-18 09:33N 45°19' W 073°55'1 0.8
2014-Aug-18 08:33N 45°18' W 073°56'1 0.9
2014-Aug-18 07:33N 45°17' W 073°56'7 7.0
2014-Aug-18 06:33N 45°13' W 074°04'1010.1
2014-Aug-18 05:33N 45°12' W 074°18'1111.3
2014-Aug-18 04:33N 45°04' W 074°31'10 9.9
2014-Aug-18 03:33N 44°60' W 074°43'3 2.8
2014-Aug-18 02:33N 44°59' W 074°47'2 2.1
2014-Aug-18 01:33N 44°59' W 074°50'1 1.4
2014-Aug-18 00:33N 44°59' W 074°52'56 9.3
2014-Aug-17 18:33N 44°23' W 075°52'1010.5
2014-Aug-17 17:33N 44°16' W 076°03'1111.5
2014-Aug-17 16:34N 44°12' W 076°18'1211.9
2014-Aug-17 15:34N 44°02' W 076°26'10711.9
2014-Aug-17 06:34N 43°24' W 078°45'1512.8
2014-Aug-17 05:26N 43°20' W 079°04'  

Dump ship's entire track history